KLM920 EGLL-EGPH
Flight info
| Callsign | KLM920 |
|---|---|
| Flight time | 0h 53m |
| Altitude | 32000 |
| Route | ULTIB1J ULTIB T420 TNT UN57 POL UN601 RIBEL DCT INPIP INPIP1E |
| Aircraft | B78X/M-V/N |
Departure
| Time | 2026-04-20 21:38 |
|---|---|
| Airport | London Heathrow Airport (EGLL) |
Arrival
| Time | 2026-04-20 22:32 |
|---|---|
| Airport | Edinburgh Airport (EGPH) |
| Time | Latitude | Longitude | Altitude | Speed | Heading |
|---|---|---|---|---|---|
| 2026-04-20 20:45 | 51.47187 | -0.44201 | 93 ft | 0 kts | 270° |
| 2026-04-20 21:12 | 51.47187 | -0.44175 | 93 ft | 6 kts | 270° |
| 2026-04-20 21:12 | 51.47187 | -0.44134 | 93 ft | 5 kts | 270° |
| 2026-04-20 21:12 | 51.47189 | -0.44097 | 93 ft | 5 kts | 240° |
| 2026-04-20 21:12 | 51.47201 | -0.44071 | 92 ft | 5 kts | 202° |
| 2026-04-20 21:13 | 51.47225 | -0.44061 | 95 ft | 5 kts | 180° |
| 2026-04-20 21:13 | 51.47234 | -0.44061 | 95 ft | 4 kts | 180° |
| 2026-04-20 21:17 | 51.47225 | -0.44061 | 95 ft | 2 kts | 179° |
| 2026-04-20 21:17 | 51.47204 | -0.44060 | 94 ft | 4 kts | 179° |
| 2026-04-20 21:17 | 51.47183 | -0.44060 | 93 ft | 5 kts | 179° |
| 2026-04-20 21:18 | 51.47139 | -0.44059 | 96 ft | 8 kts | 179° |
| 2026-04-20 21:18 | 51.47073 | -0.44059 | 93 ft | 11 kts | 180° |
| 2026-04-20 21:18 | 51.46984 | -0.44058 | 93 ft | 15 kts | 179° |
| 2026-04-20 21:18 | 51.46869 | -0.44056 | 96 ft | 18 kts | 179° |
| 2026-04-20 21:19 | 51.46757 | -0.44126 | 96 ft | 18 kts | 246° |
| 2026-04-20 21:19 | 51.46753 | -0.44254 | 94 ft | 18 kts | 269° |
| 2026-04-20 21:20 | 51.46753 | -0.44694 | 93 ft | 24 kts | 271° |
| 2026-04-20 21:20 | 51.46754 | -0.44975 | 95 ft | 26 kts | 269° |
| 2026-04-20 21:20 | 51.46750 | -0.45282 | 93 ft | 29 kts | 269° |
| 2026-04-20 21:20 | 51.46750 | -0.45617 | 93 ft | 31 kts | 270° |
| 2026-04-20 21:21 | 51.46749 | -0.45976 | 96 ft | 33 kts | 269° |
| 2026-04-20 21:21 | 51.46746 | -0.46355 | 96 ft | 35 kts | 270° |
| 2026-04-20 21:21 | 51.46747 | -0.46743 | 96 ft | 36 kts | 269° |
| 2026-04-20 21:21 | 51.46746 | -0.47152 | 96 ft | 37 kts | 269° |
| 2026-04-20 21:22 | 51.46744 | -0.47526 | 93 ft | 26 kts | 270° |
| 2026-04-20 21:22 | 51.46744 | -0.47822 | 93 ft | 27 kts | 269° |
| 2026-04-20 21:22 | 51.46743 | -0.48056 | 93 ft | 11 kts | 269° |
| 2026-04-20 21:22 | 51.46742 | -0.48194 | 93 ft | 13 kts | 270° |
| 2026-04-20 21:23 | 51.46742 | -0.48350 | 93 ft | 15 kts | 270° |
| 2026-04-20 21:23 | 51.46742 | -0.48530 | 93 ft | 17 kts | 269° |
| 2026-04-20 21:23 | 51.46732 | -0.48709 | 96 ft | 9 kts | 243° |
| 2026-04-20 21:23 | 51.46696 | -0.48741 | 97 ft | 6 kts | 191° |
| 2026-04-20 21:24 | 51.46655 | -0.48751 | 94 ft | 0 kts | 185° |
| 2026-04-20 21:24 | 51.46648 | -0.48752 | 94 ft | 2 kts | 186° |
| 2026-04-20 21:25 | 51.46626 | -0.48758 | 96 ft | 5 kts | 191° |
| 2026-04-20 21:25 | 51.46608 | -0.48767 | 96 ft | 0 kts | 196° |
| 2026-04-20 21:26 | 51.46600 | -0.48770 | 95 ft | 2 kts | 196° |
| 2026-04-20 21:26 | 51.46576 | -0.48781 | 95 ft | 5 kts | 195° |
| 2026-04-20 21:26 | 51.46525 | -0.48780 | 96 ft | 10 kts | 166° |
| 2026-04-20 21:27 | 51.46478 | -0.48676 | 96 ft | 14 kts | 105° |
| 2026-04-20 21:27 | 51.46477 | -0.48609 | 97 ft | 0 kts | 89° |
| 2026-04-20 21:27 | 51.46477 | -0.48608 | 97 ft | 1 kts | 89° |
| 2026-04-20 21:28 | 51.46480 | -0.48409 | 95 ft | 50 kts | 88° |
| 2026-04-20 21:28 | 51.46483 | -0.47417 | 95 ft | 114 kts | 90° |
| 2026-04-20 21:28 | 51.46487 | -0.46471 | 98 ft | 73 kts | 89° |
| 2026-04-20 21:28 | 51.46489 | -0.45575 | 92 ft | 87 kts | 90° |
| 2026-04-20 21:29 | 51.46490 | -0.44539 | 94 ft | 99 kts | 90° |
| 2026-04-20 21:29 | 51.46494 | -0.43760 | 92 ft | 32 kts | 89° |
| 2026-04-20 21:29 | 51.46500 | -0.43672 | 94 ft | 6 kts | 74° |
| 2026-04-20 21:29 | 51.46563 | -0.43604 | 94 ft | 16 kts | 6° |
| 2026-04-20 21:30 | 51.46673 | -0.43681 | 96 ft | 15 kts | 302° |
| 2026-04-20 21:30 | 51.46671 | -0.43784 | 94 ft | 11 kts | 264° |
| 2026-04-20 21:30 | 51.46667 | -0.43921 | 93 ft | 15 kts | 268° |
| 2026-04-20 21:30 | 51.46664 | -0.44109 | 93 ft | 19 kts | 269° |
| 2026-04-20 21:31 | 51.46665 | -0.44336 | 93 ft | 22 kts | 269° |
| 2026-04-20 21:31 | 51.46664 | -0.44603 | 93 ft | 26 kts | 270° |
| 2026-04-20 21:31 | 51.46664 | -0.44907 | 93 ft | 29 kts | 270° |
| 2026-04-20 21:31 | 51.46664 | -0.45253 | 93 ft | 32 kts | 269° |
| 2026-04-20 21:32 | 51.46662 | -0.45627 | 92 ft | 35 kts | 269° |
| 2026-04-20 21:32 | 51.46661 | -0.46017 | 93 ft | 36 kts | 269° |
| 2026-04-20 21:32 | 51.46659 | -0.46427 | 96 ft | 37 kts | 270° |
| 2026-04-20 21:32 | 51.46659 | -0.46851 | 96 ft | 39 kts | 269° |
| 2026-04-20 21:33 | 51.46657 | -0.47288 | 95 ft | 40 kts | 270° |
| 2026-04-20 21:33 | 51.46655 | -0.47737 | 95 ft | 41 kts | 269° |
| 2026-04-20 21:33 | 51.46652 | -0.48196 | 93 ft | 42 kts | 270° |
| 2026-04-20 21:33 | 51.46652 | -0.48643 | 93 ft | 31 kts | 270° |
| 2026-04-20 21:34 | 51.46587 | -0.48775 | 95 ft | 0 kts | 196° |
| 2026-04-20 21:37 | 51.46586 | -0.48775 | 93 ft | 1 kts | 195° |
| 2026-04-20 21:37 | 51.46563 | -0.48783 | 96 ft | 8 kts | 189° |
| 2026-04-20 21:37 | 51.46484 | -0.48695 | 97 ft | 22 kts | 110° |
| 2026-04-20 21:38 | 51.46477 | -0.48058 | 96 ft | 96 kts | 89° |
| 2026-04-20 21:38 | 51.46485 | -0.46582 | 101 ft | 165 kts | 90° |
| 2026-04-20 21:38 | 51.46462 | -0.44570 | 556 ft | 186 kts | 92° |
| 2026-04-20 21:38 | 51.46453 | -0.42610 | 1942 ft | 163 kts | 85° |
| 2026-04-20 21:39 | 51.46870 | -0.41004 | 2875 ft | 162 kts | 52° |
| 2026-04-20 21:39 | 51.47644 | -0.39517 | 3327 ft | 188 kts | 51° |
| 2026-04-20 21:39 | 51.48498 | -0.37649 | 3525 ft | 227 kts | 52° |
| 2026-04-20 21:39 | 51.49522 | -0.35619 | 4332 ft | 242 kts | 49° |
| 2026-04-20 21:40 | 51.50623 | -0.33557 | 5457 ft | 247 kts | 48° |
| 2026-04-20 21:40 | 51.51748 | -0.31421 | 6546 ft | 253 kts | 50° |
| 2026-04-20 21:40 | 51.52502 | -0.28831 | 7520 ft | 263 kts | 71° |
| 2026-04-20 21:40 | 51.53098 | -0.26023 | 8502 ft | 269 kts | 68° |
| 2026-04-20 21:41 | 51.53750 | -0.23173 | 9527 ft | 275 kts | 69° |
| 2026-04-20 21:41 | 51.54447 | -0.20265 | 10429 ft | 285 kts | 60° |
| 2026-04-20 21:41 | 51.55806 | -0.17883 | 11013 ft | 300 kts | 33° |
| 2026-04-20 21:41 | 51.57801 | -0.16671 | 11613 ft | 318 kts | 5° |
| 2026-04-20 21:42 | 51.60020 | -0.17104 | 12141 ft | 337 kts | 339° |
| 2026-04-20 21:42 | 51.62054 | -0.19155 | 12616 ft | 359 kts | 316° |
| 2026-04-20 21:42 | 51.63788 | -0.22206 | 13346 ft | 369 kts | 314° |
| 2026-04-20 21:42 | 51.65585 | -0.25123 | 14239 ft | 374 kts | 316° |
| 2026-04-20 21:43 | 51.67435 | -0.28106 | 15073 ft | 378 kts | 315° |
| 2026-04-20 21:43 | 51.69371 | -0.31007 | 15946 ft | 382 kts | 319° |
| 2026-04-20 21:43 | 51.71515 | -0.33562 | 16790 ft | 386 kts | 327° |
| 2026-04-20 21:43 | 51.73859 | -0.35712 | 17612 ft | 390 kts | 331° |
| 2026-04-20 21:44 | 51.76276 | -0.37746 | 18421 ft | 394 kts | 331° |
| 2026-04-20 21:44 | 51.78648 | -0.39964 | 19091 ft | 397 kts | 327° |
| 2026-04-20 21:44 | 51.80984 | -0.42355 | 19826 ft | 398 kts | 326° |
| 2026-04-20 21:44 | 51.83350 | -0.44703 | 20575 ft | 400 kts | 327° |
| 2026-04-20 21:45 | 51.85756 | -0.46987 | 21328 ft | 402 kts | 327° |
| 2026-04-20 21:45 | 51.88162 | -0.49293 | 22043 ft | 403 kts | 327° |
| 2026-04-20 21:45 | 51.90568 | -0.51654 | 22745 ft | 404 kts | 326° |
| 2026-04-20 21:45 | 51.92975 | -0.54019 | 23427 ft | 406 kts | 326° |
| 2026-04-20 21:46 | 51.95408 | -0.56387 | 24048 ft | 409 kts | 326° |
| 2026-04-20 21:46 | 51.97855 | -0.58767 | 24563 ft | 411 kts | 326° |
| 2026-04-20 21:46 | 52.00311 | -0.61170 | 25056 ft | 414 kts | 326° |
| 2026-04-20 21:46 | 52.02781 | -0.63594 | 25536 ft | 416 kts | 326° |
| 2026-04-20 21:47 | 52.05268 | -0.66033 | 26017 ft | 419 kts | 326° |
| 2026-04-20 21:47 | 52.07773 | -0.68490 | 26496 ft | 422 kts | 326° |
| 2026-04-20 21:47 | 52.10296 | -0.70971 | 26954 ft | 425 kts | 326° |
| 2026-04-20 21:47 | 52.12831 | -0.73467 | 27419 ft | 428 kts | 326° |
| 2026-04-20 21:48 | 52.15388 | -0.75990 | 27885 ft | 430 kts | 326° |
| 2026-04-20 21:48 | 52.17950 | -0.78520 | 28306 ft | 433 kts | 325° |
| 2026-04-20 21:48 | 52.20508 | -0.81050 | 28745 ft | 436 kts | 325° |
| 2026-04-20 21:48 | 52.23110 | -0.83627 | 29163 ft | 439 kts | 325° |
| 2026-04-20 21:49 | 52.25728 | -0.86223 | 29698 ft | 440 kts | 325° |
| 2026-04-20 21:49 | 52.28335 | -0.88808 | 30361 ft | 438 kts | 325° |
| 2026-04-20 21:49 | 52.30934 | -0.91390 | 30878 ft | 437 kts | 325° |
| 2026-04-20 21:49 | 52.33537 | -0.93981 | 31351 ft | 437 kts | 326° |
| 2026-04-20 21:50 | 52.36141 | -0.96577 | 31825 ft | 438 kts | 326° |
| 2026-04-20 21:50 | 52.38751 | -0.99181 | 32036 ft | 444 kts | 326° |
| 2026-04-20 21:50 | 52.41387 | -1.01814 | 32025 ft | 441 kts | 326° |
| 2026-04-20 21:51 | 52.46630 | -1.07065 | 32005 ft | 442 kts | 326° |
| 2026-04-20 21:51 | 52.51867 | -1.12328 | 31989 ft | 441 kts | 326° |
| 2026-04-20 21:52 | 52.57104 | -1.17615 | 31976 ft | 442 kts | 326° |
| 2026-04-20 21:52 | 52.62347 | -1.22906 | 31966 ft | 443 kts | 326° |
| 2026-04-20 21:53 | 52.67591 | -1.28219 | 31960 ft | 443 kts | 326° |
| 2026-04-20 21:53 | 52.72855 | -1.33566 | 31963 ft | 444 kts | 326° |
| 2026-04-20 21:54 | 52.78119 | -1.38935 | 32047 ft | 445 kts | 326° |
| 2026-04-20 21:54 | 52.83390 | -1.44323 | 32056 ft | 446 kts | 326° |
| 2026-04-20 21:55 | 52.88668 | -1.49737 | 32058 ft | 446 kts | 326° |
| 2026-04-20 21:55 | 52.93946 | -1.55165 | 32056 ft | 447 kts | 326° |
| 2026-04-20 21:56 | 52.99237 | -1.60623 | 32062 ft | 448 kts | 326° |
| 2026-04-20 21:56 | 53.04533 | -1.66072 | 32060 ft | 449 kts | 329° |
| 2026-04-20 21:57 | 53.10335 | -1.70051 | 32063 ft | 452 kts | 337° |
| 2026-04-20 21:57 | 53.16223 | -1.73697 | 32067 ft | 452 kts | 337° |
| 2026-04-20 21:58 | 53.22116 | -1.77361 | 32072 ft | 452 kts | 337° |
| 2026-04-20 21:58 | 53.28023 | -1.81044 | 32078 ft | 454 kts | 337° |
| 2026-04-20 21:59 | 53.33948 | -1.84748 | 32077 ft | 455 kts | 337° |
| 2026-04-20 21:59 | 53.39873 | -1.88464 | 32082 ft | 455 kts | 337° |
| 2026-04-20 22:00 | 53.45810 | -1.92199 | 32082 ft | 456 kts | 337° |
| 2026-04-20 22:00 | 53.51714 | -1.95924 | 32087 ft | 457 kts | 337° |
| 2026-04-20 22:01 | 53.57700 | -1.99712 | 32083 ft | 457 kts | 338° |
| 2026-04-20 22:01 | 53.63613 | -2.03465 | 32085 ft | 458 kts | 338° |
| 2026-04-20 22:02 | 53.69579 | -2.07263 | 32085 ft | 458 kts | 338° |
| 2026-04-20 22:02 | 53.74538 | -2.10436 | 32089 ft | 458 kts | 336° |
| 2026-04-20 22:03 | 53.80451 | -2.14470 | 32088 ft | 458 kts | 337° |
| 2026-04-20 22:03 | 53.86432 | -2.18526 | 32091 ft | 458 kts | 336° |
| 2026-04-20 22:04 | 53.92348 | -2.22600 | 32090 ft | 460 kts | 337° |
| 2026-04-20 22:04 | 53.98247 | -2.26640 | 32092 ft | 459 kts | 336° |
| 2026-04-20 22:05 | 54.04168 | -2.30730 | 32097 ft | 460 kts | 336° |
| 2026-04-20 22:05 | 54.10095 | -2.34820 | 32101 ft | 460 kts | 336° |
| 2026-04-20 22:06 | 54.16020 | -2.38930 | 32100 ft | 460 kts | 336° |
| 2026-04-20 22:06 | 54.21957 | -2.43057 | 32101 ft | 460 kts | 336° |
| 2026-04-20 22:07 | 54.27884 | -2.47191 | 32107 ft | 461 kts | 337° |
| 2026-04-20 22:07 | 54.33815 | -2.51340 | 32107 ft | 460 kts | 337° |
| 2026-04-20 22:08 | 54.39737 | -2.55498 | 32110 ft | 461 kts | 337° |
| 2026-04-20 22:08 | 54.45667 | -2.59671 | 32112 ft | 461 kts | 337° |
| 2026-04-20 22:09 | 54.51537 | -2.63817 | 32115 ft | 461 kts | 337° |
| 2026-04-20 22:09 | 54.57451 | -2.68007 | 31752 ft | 459 kts | 337° |
| 2026-04-20 22:09 | 54.60403 | -2.70104 | 31460 ft | 459 kts | 337° |
| 2026-04-20 22:10 | 54.63341 | -2.72193 | 31360 ft | 454 kts | 337° |
| 2026-04-20 22:10 | 54.69111 | -2.76306 | 31306 ft | 443 kts | 337° |
| 2026-04-20 22:11 | 54.74712 | -2.80311 | 31208 ft | 423 kts | 337° |
| 2026-04-20 22:11 | 54.77370 | -2.82215 | 31081 ft | 404 kts | 337° |
| 2026-04-20 22:11 | 54.79884 | -2.84019 | 30965 ft | 388 kts | 337° |
| 2026-04-20 22:11 | 54.82381 | -2.85814 | 30683 ft | 378 kts | 337° |
| 2026-04-20 22:12 | 54.84792 | -2.87549 | 30271 ft | 372 kts | 336° |
| 2026-04-20 22:12 | 54.87166 | -2.89261 | 29803 ft | 367 kts | 337° |
| 2026-04-20 22:12 | 54.89510 | -2.90952 | 29324 ft | 363 kts | 337° |
| 2026-04-20 22:12 | 54.91834 | -2.92630 | 28844 ft | 359 kts | 337° |
| 2026-04-20 22:13 | 54.94133 | -2.94293 | 28361 ft | 356 kts | 337° |
| 2026-04-20 22:13 | 54.96381 | -2.95921 | 27897 ft | 353 kts | 338° |
| 2026-04-20 22:13 | 54.98660 | -2.97574 | 27758 ft | 355 kts | 338° |
| 2026-04-20 22:13 | 55.00941 | -2.99229 | 27739 ft | 355 kts | 338° |
| 2026-04-20 22:14 | 55.03213 | -3.00880 | 27734 ft | 354 kts | 338° |
| 2026-04-20 22:14 | 55.05487 | -3.02535 | 27731 ft | 354 kts | 338° |
| 2026-04-20 22:14 | 55.07759 | -3.04191 | 27721 ft | 354 kts | 338° |
| 2026-04-20 22:14 | 55.10018 | -3.05839 | 27679 ft | 347 kts | 338° |
| 2026-04-20 22:15 | 55.12147 | -3.07394 | 27548 ft | 336 kts | 338° |
| 2026-04-20 22:15 | 55.14332 | -3.08992 | 27270 ft | 331 kts | 338° |
| 2026-04-20 22:15 | 55.16439 | -3.10533 | 26934 ft | 329 kts | 338° |
| 2026-04-20 22:15 | 55.18554 | -3.12083 | 26540 ft | 329 kts | 338° |
| 2026-04-20 22:16 | 55.20664 | -3.13633 | 26145 ft | 329 kts | 338° |
| 2026-04-20 22:16 | 55.22768 | -3.15178 | 25749 ft | 329 kts | 339° |
| 2026-04-20 22:16 | 55.24881 | -3.16730 | 25339 ft | 330 kts | 339° |
| 2026-04-20 22:16 | 55.27000 | -3.18292 | 24928 ft | 331 kts | 339° |
| 2026-04-20 22:17 | 55.29134 | -3.19801 | 24513 ft | 330 kts | 345° |
| 2026-04-20 22:17 | 55.31401 | -3.20200 | 23916 ft | 329 kts | 7° |
| 2026-04-20 22:17 | 55.33665 | -3.19875 | 23083 ft | 325 kts | 7° |
| 2026-04-20 22:17 | 55.35904 | -3.19497 | 22263 ft | 321 kts | 7° |
| 2026-04-20 22:18 | 55.38121 | -3.19131 | 21473 ft | 318 kts | 7° |
| 2026-04-20 22:18 | 55.40317 | -3.18796 | 20691 ft | 315 kts | 7° |
| 2026-04-20 22:18 | 55.42483 | -3.18466 | 19998 ft | 308 kts | 7° |
| 2026-04-20 22:18 | 55.44595 | -3.18135 | 19319 ft | 302 kts | 7° |
| 2026-04-20 22:19 | 55.46679 | -3.17804 | 18619 ft | 299 kts | 7° |
| 2026-04-20 22:19 | 55.48739 | -3.17480 | 17834 ft | 295 kts | 7° |
| 2026-04-20 22:19 | 55.50775 | -3.17162 | 17054 ft | 292 kts | 7° |
| 2026-04-20 22:19 | 55.52786 | -3.16846 | 16283 ft | 288 kts | 7° |
| 2026-04-20 22:20 | 55.54771 | -3.16533 | 15517 ft | 284 kts | 7° |
| 2026-04-20 22:20 | 55.56714 | -3.16227 | 14788 ft | 281 kts | 7° |
| 2026-04-20 22:20 | 55.58649 | -3.15923 | 14043 ft | 277 kts | 7° |
| 2026-04-20 22:20 | 55.60557 | -3.15622 | 13229 ft | 274 kts | 7° |
| 2026-04-20 22:21 | 55.62446 | -3.15323 | 12549 ft | 269 kts | 7° |
| 2026-04-20 22:21 | 55.64311 | -3.15028 | 12039 ft | 269 kts | 7° |
| 2026-04-20 22:21 | 55.66146 | -3.14739 | 11561 ft | 258 kts | 7° |
| 2026-04-20 22:21 | 55.67892 | -3.14464 | 11058 ft | 246 kts | 7° |
| 2026-04-20 22:22 | 55.69555 | -3.14200 | 10578 ft | 238 kts | 7° |
| 2026-04-20 22:22 | 55.71200 | -3.13937 | 10077 ft | 237 kts | 7° |
| 2026-04-20 22:22 | 55.72826 | -3.13505 | 9568 ft | 236 kts | 12° |
| 2026-04-20 22:22 | 55.74453 | -3.13120 | 9063 ft | 236 kts | 8° |
| 2026-04-20 22:23 | 55.76080 | -3.12768 | 8559 ft | 235 kts | 9° |
| 2026-04-20 22:23 | 55.77695 | -3.12370 | 8085 ft | 232 kts | 10° |
| 2026-04-20 22:23 | 55.79253 | -3.11968 | 7610 ft | 228 kts | 10° |
| 2026-04-20 22:23 | 55.80809 | -3.11573 | 7138 ft | 225 kts | 10° |
| 2026-04-20 22:24 | 55.82351 | -3.11186 | 6664 ft | 223 kts | 10° |
| 2026-04-20 22:24 | 55.83878 | -3.10803 | 6161 ft | 220 kts | 10° |
| 2026-04-20 22:24 | 55.85390 | -3.10423 | 5664 ft | 219 kts | 10° |
| 2026-04-20 22:24 | 55.86890 | -3.10044 | 5171 ft | 217 kts | 10° |
| 2026-04-20 22:25 | 55.88379 | -3.09668 | 4680 ft | 216 kts | 10° |
| 2026-04-20 22:25 | 55.89862 | -3.09294 | 4182 ft | 214 kts | 10° |
| 2026-04-20 22:25 | 55.91331 | -3.08924 | 3693 ft | 212 kts | 10° |
| 2026-04-20 22:25 | 55.92788 | -3.08555 | 3213 ft | 211 kts | 10° |
| 2026-04-20 22:26 | 55.94218 | -3.08193 | 3065 ft | 207 kts | 10° |
| 2026-04-20 22:26 | 55.95655 | -3.07828 | 3064 ft | 207 kts | 10° |
| 2026-04-20 22:26 | 55.97093 | -3.07463 | 3071 ft | 208 kts | 10° |
| 2026-04-20 22:27 | 55.99907 | -3.06753 | 3053 ft | 193 kts | 11° |
| 2026-04-20 22:27 | 56.01267 | -3.06458 | 3035 ft | 197 kts | 4° |
| 2026-04-20 22:27 | 56.02565 | -3.07252 | 3031 ft | 204 kts | 329° |
| 2026-04-20 22:27 | 56.03394 | -3.09160 | 3026 ft | 188 kts | 295° |
| 2026-04-20 22:28 | 56.03504 | -3.11402 | 2996 ft | 182 kts | 258° |
| 2026-04-20 22:28 | 56.03014 | -3.13460 | 3052 ft | 180 kts | 242° |
| 2026-04-20 22:28 | 56.02408 | -3.15356 | 2912 ft | 167 kts | 240° |
| 2026-04-20 22:28 | 56.01838 | -3.17070 | 2688 ft | 161 kts | 239° |
| 2026-04-20 22:29 | 56.01258 | -3.18783 | 2479 ft | 157 kts | 238° |
| 2026-04-20 22:29 | 56.00688 | -3.20456 | 2256 ft | 157 kts | 239° |
| 2026-04-20 22:29 | 56.00133 | -3.22097 | 2033 ft | 156 kts | 239° |
| 2026-04-20 22:29 | 55.99571 | -3.23750 | 1826 ft | 155 kts | 239° |
| 2026-04-20 22:30 | 55.99015 | -3.25404 | 1593 ft | 156 kts | 240° |
| 2026-04-20 22:30 | 55.98460 | -3.27050 | 1397 ft | 153 kts | 239° |
| 2026-04-20 22:30 | 55.97906 | -3.28683 | 1171 ft | 155 kts | 239° |
| 2026-04-20 22:30 | 55.97359 | -3.30305 | 920 ft | 152 kts | 239° |
| 2026-04-20 22:31 | 55.96809 | -3.31943 | 733 ft | 155 kts | 238° |
| 2026-04-20 22:31 | 55.96256 | -3.33544 | 405 ft | 149 kts | 238° |
| 2026-04-20 22:31 | 55.95733 | -3.35108 | 238 ft | 146 kts | 237° |
| 2026-04-20 22:31 | 55.95218 | -3.36618 | 117 ft | 129 kts | 238° |
| 2026-04-20 22:32 | 55.94829 | -3.37763 | 120 ft | 85 kts | 239° |
| 2026-04-20 22:32 | 55.94587 | -3.38460 | 119 ft | 48 kts | 238° |
| 2026-04-20 22:32 | 55.94425 | -3.38933 | 128 ft | 35 kts | 233° |
| 2026-04-20 22:32 | 55.94349 | -3.38938 | 124 ft | 9 kts | 144° |
| 2026-04-20 22:33 | 55.94309 | -3.38889 | 126 ft | 0 kts | 146° |
| 2026-04-20 22:35 | 55.94295 | -3.38869 | 124 ft | 4 kts | 141° |
| 2026-04-20 22:36 | 55.94285 | -3.38819 | 124 ft | 8 kts | 96° |
| 2026-04-20 22:36 | 55.94318 | -3.38682 | 124 ft | 16 kts | 57° |
| 2026-04-20 22:36 | 55.94387 | -3.38484 | 120 ft | 22 kts | 59° |
| 2026-04-20 22:36 | 55.94471 | -3.38230 | 117 ft | 26 kts | 59° |
| 2026-04-20 22:37 | 55.94569 | -3.37944 | 118 ft | 28 kts | 58° |
| 2026-04-20 22:37 | 55.94672 | -3.37643 | 118 ft | 30 kts | 59° |
| 2026-04-20 22:37 | 55.94787 | -3.37307 | 114 ft | 34 kts | 59° |
| 2026-04-20 22:37 | 55.94906 | -3.36953 | 111 ft | 23 kts | 59° |
| 2026-04-20 22:38 | 55.94911 | -3.36837 | 112 ft | 4 kts | 125° |
| 2026-04-20 22:38 | 55.94899 | -3.36787 | 114 ft | 4 kts | 101° |
| 2026-04-20 22:38 | 55.94905 | -3.36738 | 114 ft | 4 kts | 74° |
| 2026-04-20 22:38 | 55.94912 | -3.36685 | 112 ft | 2 kts | 88° |
| 2026-04-20 22:39 | 55.94907 | -3.36676 | 113 ft | 1 kts | 121° |
| 2026-04-20 22:39 | 55.94898 | -3.36662 | 113 ft | 3 kts | 137° |
| 2026-04-20 22:39 | 55.94884 | -3.36643 | 110 ft | 2 kts | 141° |
| 2026-04-20 22:39 | 55.94872 | -3.36627 | 112 ft | 2 kts | 142° |
| 2026-04-20 22:40 | 55.94868 | -3.36621 | 112 ft | 0 kts | 142° |